ENSG/SOG METAR and TAF weather

Enter ICAO airport designator
Station Type Date Time Source
ENSG METAR 2022/09/26 10:20 UTC NOAA

ENSG 261020Z 02007KT 9999 FEW/// BKN037 07/04 Q0989 RMK WIND 3806FT 11016KT


Station Type Date Time Source
ENSG Decoded METAR 2022/09/26 10:20 UTC NOAA

Sogndal / Haukasen, Norway (ENSG) 61-09N 007-08E 497M
Sep 26, 2022 - 06:20 AM EDT / 2022.09.26 1020 UTC
Wind: from the NNE (020 degrees) at 8 MPH (7 KT):0
Visibility: greater than 7 mile(s):0
Sky conditions: mostly cloudy
Temperature: 44 F (7 C)
Dew Point: 39 F (4 C)
Relative Humidity: 81%
Pressure (altimeter): 29.21 in. Hg (0989 hPa)
ob: ENSG 261020Z 02007KT 9999 FEW/// BKN037 07/04 Q0989 RMK WIND 3806FT 11016KT
cycle: 10

Station Type Date Time Source
ENSG TAF UTC NOAA

Error!

Example: see airport list